createdAt,value
2022-11-26T00:00:49.080Z,8.93
2022-11-26T00:03:16.965Z,8.86
2022-11-26T00:05:45.889Z,8.82
2022-11-26T00:08:17.787Z,9.01
2022-11-26T00:10:53.777Z,8.96
2022-11-26T00:13:22.918Z,8.94
2022-11-26T00:15:50.987Z,9.03
2022-11-26T00:18:18.554Z,8.99
2022-11-26T00:20:47.232Z,9.00
2022-11-26T00:23:21.146Z,8.86
2022-11-26T00:25:52.011Z,8.85
2022-11-26T00:28:28.718Z,8.86
2022-11-26T00:30:57.762Z,8.93
2022-11-26T00:33:27.015Z,8.88
2022-11-26T00:35:57.085Z,8.85
2022-11-26T00:38:24.812Z,8.83
2022-11-26T00:40:53.793Z,8.98
2022-11-26T00:43:21.196Z,8.75
2022-11-26T00:45:50.326Z,8.80
2022-11-26T00:48:19.344Z,8.83
2022-11-26T00:50:49.091Z,8.92
2022-11-26T00:53:19.185Z,8.93
2022-11-26T00:55:48.686Z,8.92
2022-11-26T00:58:23.864Z,8.84
2022-11-26T01:00:51.883Z,8.77
2022-11-26T01:03:19.688Z,8.58
2022-11-26T01:05:50.177Z,8.59
2022-11-26T01:08:28.778Z,8.58
2022-11-26T01:10:56.298Z,8.42
2022-11-26T01:13:25.073Z,8.35
2022-11-26T01:15:52.633Z,8.49
2022-11-26T01:18:21.180Z,8.27
2022-11-26T01:20:49.051Z,8.16
2022-11-26T01:23:18.758Z,8.15
2022-11-26T01:25:47.359Z,8.21
2022-11-26T01:28:18.012Z,8.17
2022-11-26T01:30:47.461Z,8.20
2022-11-26T01:33:14.935Z,8.20
2022-11-26T01:35:42.336Z,8.15
2022-11-26T01:38:12.106Z,7.88
2022-11-26T01:41:04.284Z,7.99
2022-11-26T01:43:34.503Z,8.17
2022-11-26T01:46:03.346Z,8.10
2022-11-26T01:48:33.444Z,8.15
2022-11-26T01:51:03.507Z,8.18
2022-11-26T01:53:34.899Z,8.19
2022-11-26T01:56:05.253Z,8.29
2022-11-26T01:58:39.620Z,8.25
2022-11-26T02:01:09.079Z,8.14
2022-11-26T02:03:45.194Z,8.14
2022-11-26T02:06:16.639Z,8.24
2022-11-26T02:08:44.406Z,8.15
2022-11-26T02:11:19.564Z,8.20
2022-11-26T02:13:48.731Z,8.17
2022-11-26T02:16:25.455Z,8.12
2022-11-26T02:19:03.255Z,8.08
2022-11-26T02:21:32.981Z,8.00
2022-11-26T02:24:32.643Z,8.18
2022-11-26T02:27:16.305Z,7.89
2022-11-26T02:30:04.700Z,7.87
2022-11-26T02:32:35.539Z,7.79
2022-11-26T02:35:06.283Z,7.80
2022-11-26T02:37:37.084Z,7.76
2022-11-26T02:40:05.327Z,7.90
2022-11-26T02:42:35.169Z,7.96
2022-11-26T02:45:07.751Z,7.79
2022-11-26T02:47:38.783Z,7.77
2022-11-26T02:50:09.786Z,7.85
2022-11-26T02:52:40.349Z,7.81
2022-11-26T02:55:09.473Z,7.81
2022-11-26T02:57:42.547Z,7.73
2022-11-26T03:00:12.675Z,7.67
2022-11-26T03:02:44.630Z,7.60
2022-11-26T03:05:13.620Z,7.70
2022-11-26T03:07:41.455Z,7.68
2022-11-26T03:10:09.486Z,7.63
2022-11-26T03:12:36.908Z,7.62
2022-11-26T03:15:04.863Z,7.57
2022-11-26T03:17:35.695Z,7.44
2022-11-26T03:20:04.687Z,7.45
2022-11-26T03:22:32.190Z,7.52
2022-11-26T03:24:59.610Z,7.66
2022-11-26T03:27:27.127Z,7.34
2022-11-26T03:29:54.630Z,7.33
2022-11-26T03:32:22.073Z,7.29
2022-11-26T03:34:51.087Z,7.38
2022-11-26T03:37:18.588Z,7.32
2022-11-26T03:39:45.976Z,7.31
2022-11-26T03:42:13.457Z,7.23
2022-11-26T03:44:41.066Z,7.37
2022-11-26T03:47:08.515Z,7.26
2022-11-26T03:49:35.939Z,7.19
2022-11-26T03:52:04.896Z,7.22
2022-11-26T03:54:32.341Z,7.05
2022-11-26T03:56:59.779Z,7.13
2022-11-26T03:59:27.280Z,7.20
2022-11-26T04:01:55.453Z,7.11
2022-11-26T04:04:22.959Z,7.18
2022-11-26T04:06:50.387Z,7.38
2022-11-26T04:09:19.215Z,7.42
2022-11-26T04:11:47.827Z,7.15
2022-11-26T04:14:15.349Z,7.22
2022-11-26T04:16:42.833Z,7.25
2022-11-26T04:19:10.298Z,7.26
2022-11-26T04:21:37.771Z,7.34
2022-11-26T04:24:05.670Z,7.40
2022-11-26T04:26:34.497Z,7.32
2022-11-26T04:29:01.906Z,7.50
2022-11-26T04:31:29.360Z,7.54
2022-11-26T04:33:56.884Z,7.58
2022-11-26T04:36:24.503Z,7.50
2022-11-26T04:38:51.951Z,7.59
2022-11-26T04:41:19.489Z,7.65
2022-11-26T04:43:48.291Z,7.68
2022-11-26T04:46:15.778Z,7.61
2022-11-26T04:48:43.312Z,7.56
2022-11-26T04:51:10.711Z,7.68
2022-11-26T04:53:38.126Z,7.91
2022-11-26T04:56:05.755Z,8.01
2022-11-26T04:58:33.159Z,7.98
2022-11-26T05:01:02.003Z,8.03
2022-11-26T05:03:29.804Z,8.03
2022-11-26T05:05:57.252Z,8.12
2022-11-26T05:08:24.722Z,8.14
2022-11-26T05:10:54.082Z,8.09
2022-11-26T05:13:21.643Z,8.28
2022-11-26T05:15:49.117Z,8.03
2022-11-26T05:18:18.130Z,8.14
2022-11-26T05:20:45.573Z,8.25
2022-11-26T05:23:13.147Z,8.20
2022-11-26T05:25:40.604Z,8.12
2022-11-26T05:28:08.036Z,8.11
2022-11-26T05:30:35.631Z,7.81
2022-11-26T05:33:03.037Z,7.34
2022-11-26T05:35:31.823Z,7.61
2022-11-26T05:37:59.273Z,7.53
2022-11-26T05:40:26.976Z,7.47
2022-11-26T05:42:54.506Z,7.48
2022-11-26T05:45:22.013Z,7.55
2022-11-26T05:47:49.408Z,7.71
2022-11-26T05:50:17.755Z,7.79
2022-11-26T05:52:46.471Z,7.85
2022-11-26T05:55:16.349Z,7.86
2022-11-26T05:57:43.816Z,7.88
2022-11-26T06:00:12.796Z,7.86
2022-11-26T06:02:41.278Z,7.72
2022-11-26T06:05:09.531Z,7.49
2022-11-26T06:07:40.581Z,7.66
2022-11-26T06:10:13.034Z,7.81
2022-11-26T06:12:40.556Z,7.77
2022-11-26T06:15:08.745Z,7.92
2022-11-26T06:17:38.276Z,8.01
2022-11-26T06:20:07.022Z,7.78
2022-11-26T06:22:37.894Z,7.80
2022-11-26T06:25:06.066Z,7.72
2022-11-26T06:27:35.533Z,7.74
2022-11-26T06:30:04.561Z,7.84
2022-11-26T06:32:32.590Z,7.73
2022-11-26T06:35:00.042Z,7.86
2022-11-26T06:37:27.826Z,7.68
2022-11-26T06:39:55.347Z,7.79
2022-11-26T06:42:22.771Z,7.68
2022-11-26T06:44:53.221Z,7.64
2022-11-26T06:47:23.302Z,7.82
2022-11-26T06:49:50.699Z,7.78
2022-11-26T06:52:18.208Z,7.86
2022-11-26T06:54:45.624Z,7.93
2022-11-26T06:57:15.011Z,8.09
2022-11-26T06:59:42.460Z,7.77
2022-11-26T07:02:12.181Z,7.83
2022-11-26T07:04:39.761Z,8.03
2022-11-26T07:07:07.396Z,8.12
2022-11-26T07:09:34.812Z,8.08
2022-11-26T07:12:02.216Z,7.91
2022-11-26T07:14:29.637Z,7.93
2022-11-26T07:16:57.103Z,7.81
2022-11-26T07:19:26.074Z,7.96
2022-11-26T07:21:54.083Z,7.99
2022-11-26T07:24:21.479Z,8.03
2022-11-26T07:26:49.911Z,7.89
2022-11-26T07:29:17.462Z,7.83
2022-11-26T07:31:44.967Z,7.59
2022-11-26T07:34:12.429Z,7.64
2022-11-26T07:36:43.336Z,7.66
2022-11-26T07:39:11.913Z,7.84
2022-11-26T07:41:39.558Z,7.62
2022-11-26T07:44:06.999Z,7.83
2022-11-26T07:46:37.434Z,7.89
2022-11-26T07:49:04.960Z,8.07
2022-11-26T07:51:33.563Z,8.17
2022-11-26T07:54:07.510Z,8.04
2022-11-26T07:56:35.375Z,8.01
2022-11-26T07:59:02.857Z,7.96
2022-11-26T08:01:31.996Z,7.91
2022-11-26T08:04:00.631Z,8.00
2022-11-26T08:06:30.045Z,7.85
2022-11-26T08:08:59.945Z,7.87
2022-11-26T08:11:30.372Z,7.93
2022-11-26T08:13:59.624Z,7.76
2022-11-26T08:16:29.017Z,7.79
2022-11-26T08:18:57.326Z,7.79
2022-11-26T08:21:24.907Z,7.86
2022-11-26T08:23:52.852Z,7.90
2022-11-26T08:26:25.254Z,7.91
2022-11-26T08:29:00.493Z,8.03
2022-11-26T08:31:28.621Z,8.17
2022-11-26T08:33:57.815Z,8.15
2022-11-26T08:36:25.327Z,8.32
2022-11-26T08:38:52.746Z,8.23
2022-11-26T08:41:20.394Z,8.48
2022-11-26T08:46:37.322Z,8.65
2022-11-26T08:49:05.072Z,8.76
2022-11-26T08:51:32.553Z,8.80
2022-11-26T08:54:00.051Z,8.49
2022-11-26T08:56:27.482Z,8.72
2022-11-26T08:58:54.907Z,8.48
2022-11-26T09:01:24.409Z,8.55
2022-11-26T09:03:54.664Z,8.58
2022-11-26T09:06:23.389Z,8.53
2022-11-26T09:09:08.723Z,8.55
2022-11-26T09:11:38.583Z,8.44
2022-11-26T09:14:06.256Z,8.53
2022-11-26T09:16:33.924Z,8.24
2022-11-26T09:19:04.194Z,8.33
2022-11-26T09:21:34.500Z,8.31
2022-11-26T09:24:02.047Z,8.20
2022-11-26T09:26:31.171Z,8.48
2022-11-26T09:28:58.799Z,8.59
2022-11-26T09:31:26.673Z,8.63
2022-11-26T09:33:56.046Z,8.94
2022-11-26T09:36:24.841Z,8.88
2022-11-26T09:38:54.760Z,8.88
2022-11-26T09:41:31.775Z,9.06
2022-11-26T09:44:16.362Z,9.01
2022-11-26T09:47:10.878Z,9.12
2022-11-26T09:49:40.571Z,9.25
2022-11-26T09:52:10.376Z,9.15
2022-11-26T09:54:39.141Z,9.14
2022-11-26T09:58:26.671Z,9.13
2022-11-26T10:00:56.497Z,9.42
2022-11-26T10:03:25.883Z,9.67
2022-11-26T10:05:58.931Z,9.80
2022-11-26T10:08:38.626Z,10.06
2022-11-26T10:11:09.675Z,9.63
2022-11-26T10:13:44.419Z,9.63
2022-11-26T10:16:16.143Z,9.92
2022-11-26T10:18:48.819Z,9.96
2022-11-26T10:21:32.413Z,10.04
2022-11-26T10:24:11.259Z,10.14
2022-11-26T10:26:40.608Z,10.13
2022-11-26T10:29:19.391Z,9.68
2022-11-26T10:31:48.231Z,9.76
2022-11-26T10:34:19.784Z,9.94
2022-11-26T10:36:48.362Z,10.24
2022-11-26T10:39:17.524Z,10.40
2022-11-26T10:41:45.606Z,10.33
2022-11-26T10:44:34.150Z,10.47
2022-11-26T10:47:21.333Z,10.52
2022-11-26T10:49:49.272Z,10.69
2022-11-26T10:52:18.592Z,10.84
2022-11-26T10:54:47.128Z,10.52
2022-11-26T10:57:16.871Z,10.06
2022-11-26T10:59:51.159Z,10.16
2022-11-26T11:02:31.010Z,10.23
2022-11-26T11:04:59.807Z,10.22
2022-11-26T11:07:41.605Z,10.10
2022-11-26T11:10:15.859Z,10.10
2022-11-26T11:12:44.279Z,10.24
2022-11-26T11:15:22.613Z,10.63
2022-11-26T11:17:56.795Z,10.53
2022-11-26T11:20:29.740Z,11.01
2022-11-26T11:23:03.501Z,11.28
2022-11-26T11:25:32.484Z,11.00
2022-11-26T11:28:12.049Z,10.86
2022-11-26T11:30:42.378Z,10.80
2022-11-26T11:33:12.441Z,10.83
2022-11-26T11:35:39.967Z,10.90
2022-11-26T11:38:22.563Z,10.82
2022-11-26T11:40:51.832Z,10.62
2022-11-26T11:43:22.484Z,10.95
2022-11-26T11:46:09.937Z,10.68
2022-11-26T11:48:47.081Z,10.86
2022-11-26T11:51:24.718Z,10.66
2022-11-26T11:54:03.496Z,10.78
2022-11-26T11:56:35.954Z,10.97
2022-11-26T11:59:21.882Z,10.92
2022-11-26T12:02:09.750Z,10.57
2022-11-26T12:04:52.236Z,10.20
2022-11-26T12:07:31.549Z,10.44
2022-11-26T12:10:06.770Z,10.20
2022-11-26T12:12:36.446Z,9.67
2022-11-26T12:15:07.704Z,9.98
2022-11-26T12:17:39.815Z,9.67
2022-11-26T12:20:15.526Z,9.61
2022-11-26T12:22:46.418Z,9.91
2022-11-26T12:25:21.733Z,9.92
2022-11-26T12:27:56.046Z,10.03
2022-11-26T12:30:27.392Z,9.99
2022-11-26T12:32:58.728Z,9.95
2022-11-26T12:35:30.019Z,10.01
2022-11-26T12:37:59.595Z,9.85
2022-11-26T12:40:32.611Z,9.74
2022-11-26T12:43:03.499Z,9.69
2022-11-26T12:45:45.833Z,9.96
2022-11-26T12:48:25.911Z,10.06
2022-11-26T12:50:56.012Z,10.18
2022-11-26T12:53:32.896Z,10.20
2022-11-26T12:56:07.335Z,10.15
2022-11-26T12:58:42.224Z,10.45
2022-11-26T13:01:10.468Z,10.27
2022-11-26T13:03:39.423Z,10.15
2022-11-26T13:06:12.670Z,9.85
2022-11-26T13:08:48.989Z,10.32
2022-11-26T13:11:26.087Z,10.45
2022-11-26T13:13:59.251Z,10.21
2022-11-26T13:16:34.732Z,10.25
2022-11-26T13:19:07.832Z,10.39
2022-11-26T13:21:44.901Z,10.45
2022-11-26T13:24:24.318Z,10.32
2022-11-26T13:27:07.399Z,10.49
2022-11-26T13:29:50.351Z,10.45
2022-11-26T13:32:39.291Z,10.42
2022-11-26T13:35:19.327Z,10.17
2022-11-26T13:38:07.934Z,10.18
2022-11-26T13:40:58.865Z,10.36
2022-11-26T13:43:55.228Z,9.80
2022-11-26T13:46:29.038Z,10.07
2022-11-26T13:49:01.541Z,10.14
2022-11-26T13:51:33.855Z,9.94
2022-11-26T13:54:07.133Z,9.89
2022-11-26T13:56:36.111Z,9.54
2022-11-26T13:59:05.805Z,9.73
2022-11-26T14:01:38.023Z,9.79
2022-11-26T14:04:07.706Z,9.51
2022-11-26T14:06:37.080Z,9.58
2022-11-26T14:09:05.882Z,9.70
2022-11-26T14:11:57.647Z,9.65
2022-11-26T14:14:33.157Z,9.62
2022-11-26T14:17:32.418Z,9.76
2022-11-26T14:20:09.211Z,9.70
2022-11-26T14:22:38.833Z,9.60
2022-11-26T14:25:08.697Z,9.65
2022-11-26T14:27:37.843Z,9.58
2022-11-26T14:30:19.539Z,9.69
2022-11-26T14:32:51.758Z,9.55
2022-11-26T14:35:23.560Z,9.54
2022-11-26T14:37:54.274Z,9.49
2022-11-26T14:40:24.969Z,9.41
2022-11-26T14:43:07.808Z,9.32
2022-11-26T14:45:35.463Z,9.43
2022-11-26T14:48:03.383Z,9.43
2022-11-26T14:50:31.571Z,9.41
2022-11-26T14:53:04.593Z,9.46
2022-11-26T14:55:32.608Z,9.20
2022-11-26T14:58:06.137Z,9.26
2022-11-26T15:00:36.730Z,9.31
2022-11-26T15:03:04.612Z,9.37
2022-11-26T15:05:33.895Z,9.20
2022-11-26T15:08:04.356Z,9.25
2022-11-26T15:10:33.433Z,9.22
2022-11-26T15:13:04.703Z,9.14
2022-11-26T15:15:32.212Z,9.10
2022-11-26T15:18:03.693Z,9.21
2022-11-26T15:20:31.375Z,9.32
2022-11-26T15:23:00.107Z,9.19
2022-11-26T15:25:33.532Z,9.08
2022-11-26T15:28:03.858Z,9.03
2022-11-26T15:30:34.058Z,8.99
2022-11-26T15:33:03.204Z,9.04
2022-11-26T15:35:33.108Z,9.16
2022-11-26T15:38:00.663Z,9.03
2022-11-26T15:40:31.384Z,9.09
2022-11-26T15:43:00.963Z,8.98
2022-11-26T15:45:35.974Z,8.94
2022-11-26T15:48:04.667Z,8.98
2022-11-26T15:50:33.620Z,8.97
2022-11-26T15:53:03.809Z,8.93
2022-11-26T15:55:34.479Z,8.94
2022-11-26T15:58:04.460Z,8.96
2022-11-26T16:00:34.374Z,9.00
2022-11-26T16:03:02.099Z,9.09
2022-11-26T16:05:34.600Z,9.18
2022-11-26T16:08:03.619Z,9.07
2022-11-26T16:10:35.311Z,8.94
2022-11-26T16:13:08.790Z,8.94
2022-11-26T16:15:36.770Z,9.04
2022-11-26T16:18:05.206Z,8.92
2022-11-26T16:20:32.634Z,8.88
2022-11-26T16:23:00.777Z,8.91
2022-11-26T16:25:29.610Z,8.98
2022-11-26T16:28:13.127Z,8.95
2022-11-26T16:30:42.673Z,8.97
2022-11-26T16:33:10.489Z,8.95
2022-11-26T16:35:46.440Z,8.99
2022-11-26T16:38:19.011Z,9.06
2022-11-26T16:40:46.616Z,9.13
2022-11-26T16:43:15.473Z,8.99
2022-11-26T16:45:43.463Z,8.92
2022-11-26T16:48:20.003Z,8.80
2022-11-26T16:50:47.436Z,8.85
2022-11-26T16:53:14.980Z,8.71
2022-11-26T16:55:42.407Z,8.78
2022-11-26T16:58:17.601Z,8.81
2022-11-26T17:00:45.046Z,8.89
2022-11-26T17:03:14.497Z,8.86
2022-11-26T17:05:42.403Z,8.67
2022-11-26T17:08:11.872Z,8.81
2022-11-26T17:10:39.355Z,8.84
2022-11-26T17:13:06.822Z,8.82
2022-11-26T17:15:35.883Z,8.90
2022-11-26T17:18:06.219Z,8.96
2022-11-26T17:20:33.615Z,8.82
2022-11-26T17:23:01.034Z,8.96
2022-11-26T17:25:30.539Z,8.79
2022-11-26T17:27:57.963Z,8.79
2022-11-26T17:30:25.550Z,8.78
2022-11-26T17:32:54.359Z,8.79
2022-11-26T17:35:21.848Z,8.65
2022-11-26T17:37:49.313Z,8.65
2022-11-26T17:40:18.058Z,8.69
2022-11-26T17:42:45.514Z,8.59
2022-11-26T17:45:13.150Z,8.80
2022-11-26T17:47:41.295Z,8.72
2022-11-26T17:50:16.616Z,8.62
2022-11-26T17:52:44.047Z,8.69
2022-11-26T17:55:12.550Z,8.67
2022-11-26T17:57:39.967Z,8.51
2022-11-26T18:00:09.572Z,8.40
2022-11-26T18:02:37.065Z,8.48
2022-11-26T18:05:04.886Z,8.56
2022-11-26T18:07:33.720Z,8.57
2022-11-26T18:10:01.167Z,8.38
2022-11-26T18:12:29.335Z,8.33
2022-11-26T18:14:57.885Z,8.43
2022-11-26T18:17:25.665Z,8.40
2022-11-26T18:19:53.132Z,8.39
2022-11-26T18:22:22.715Z,8.39
2022-11-26T18:24:56.984Z,8.40
2022-11-26T18:27:26.546Z,8.23
2022-11-26T18:29:54.071Z,8.27
2022-11-26T18:32:21.638Z,8.24
2022-11-26T18:34:49.646Z,8.28
2022-11-26T18:37:17.478Z,8.18
2022-11-26T18:39:44.900Z,8.06
2022-11-26T18:45:01.322Z,8.02
2022-11-26T18:47:29.051Z,7.93
2022-11-26T18:49:56.569Z,8.13
2022-11-26T18:52:24.006Z,8.01
2022-11-26T18:54:51.466Z,8.00
2022-11-26T18:57:20.218Z,7.93
2022-11-26T18:59:48.167Z,7.92
2022-11-26T19:02:15.678Z,7.74
2022-11-26T19:04:43.104Z,7.83
2022-11-26T19:07:10.903Z,7.66
2022-11-26T19:09:38.882Z,7.61
2022-11-26T19:12:07.306Z,7.78
2022-11-26T19:14:36.101Z,7.69
2022-11-26T19:17:03.669Z,7.77
2022-11-26T19:19:32.966Z,7.48
2022-11-26T19:22:01.709Z,7.55
2022-11-26T19:24:29.536Z,7.12
2022-11-26T19:26:57.058Z,7.14
2022-11-26T19:29:24.790Z,7.26
2022-11-26T19:31:53.624Z,7.26
2022-11-26T19:34:21.048Z,7.26
2022-11-26T19:36:49.219Z,7.21
2022-11-26T19:39:18.166Z,7.25
2022-11-26T19:41:45.638Z,7.14
2022-11-26T19:44:13.082Z,7.20
2022-11-26T19:46:41.739Z,7.18
2022-11-26T19:49:12.500Z,7.19
2022-11-26T19:51:40.315Z,7.19
2022-11-26T19:54:07.891Z,7.06
2022-11-26T19:56:35.607Z,6.84
2022-11-26T19:59:03.248Z,6.77
2022-11-26T20:01:32.028Z,7.03
2022-11-26T20:04:00.873Z,7.18
2022-11-26T20:06:31.566Z,6.93
2022-11-26T20:08:59.123Z,6.77
2022-11-26T20:11:27.283Z,6.62
2022-11-26T20:13:55.321Z,6.54
2022-11-26T20:16:25.610Z,6.55
2022-11-26T20:18:53.564Z,6.42
2022-11-26T20:21:22.619Z,6.38
2022-11-26T20:23:51.775Z,6.34
2022-11-26T20:26:21.624Z,6.44
2022-11-26T20:28:49.666Z,6.21
2022-11-26T20:31:22.082Z,6.15
2022-11-26T20:33:51.359Z,6.32
2022-11-26T20:36:20.718Z,6.27
2022-11-26T20:38:48.172Z,6.28
2022-11-26T20:41:17.415Z,6.28
2022-11-26T20:43:45.269Z,6.42
2022-11-26T20:46:14.710Z,6.39
2022-11-26T20:48:43.707Z,6.37
2022-11-26T20:51:13.582Z,6.31
2022-11-26T20:53:41.837Z,6.38
2022-11-26T20:56:09.646Z,6.37
2022-11-26T20:58:38.425Z,6.44
2022-11-26T21:01:06.538Z,6.46
2022-11-26T21:03:34.011Z,6.43
2022-11-26T21:06:03.371Z,6.49
2022-11-26T21:08:30.978Z,6.57
2022-11-26T21:10:58.430Z,6.66
2022-11-26T21:13:25.874Z,6.68
2022-11-26T21:15:54.996Z,6.68
2022-11-26T21:18:22.435Z,6.64
2022-11-26T21:20:50.224Z,6.61
2022-11-26T21:23:17.643Z,6.65
2022-11-26T21:25:45.059Z,6.74
2022-11-26T21:28:14.900Z,6.62
2022-11-26T21:30:42.858Z,6.56
2022-11-26T21:33:11.660Z,6.61
2022-11-26T21:35:39.111Z,6.62
2022-11-26T21:38:06.812Z,6.49
2022-11-26T21:40:34.255Z,6.49
2022-11-26T21:43:01.663Z,6.48
2022-11-26T21:45:29.584Z,6.39
2022-11-26T21:47:56.998Z,6.30
2022-11-26T21:50:25.748Z,6.31
2022-11-26T21:52:53.194Z,6.19
2022-11-26T21:55:21.987Z,6.09
2022-11-26T21:57:49.400Z,6.05
2022-11-26T22:00:18.125Z,6.00
2022-11-26T22:02:45.594Z,6.02
2022-11-26T22:05:13.085Z,6.00
2022-11-26T22:07:42.061Z,5.87
2022-11-26T22:10:10.948Z,5.84
2022-11-26T22:12:38.375Z,5.86
2022-11-26T22:15:06.599Z,5.82
2022-11-26T22:17:35.753Z,5.75
2022-11-26T22:20:03.696Z,5.82
2022-11-26T22:22:32.093Z,5.81
2022-11-26T22:25:00.830Z,5.77
2022-11-26T22:27:28.248Z,5.78
2022-11-26T22:29:55.695Z,5.69
2022-11-26T22:32:23.150Z,5.77
2022-11-26T22:34:50.537Z,5.68
2022-11-26T22:37:17.956Z,5.80
2022-11-26T22:39:47.748Z,5.78
2022-11-26T22:42:19.877Z,5.75
2022-11-26T22:44:47.305Z,5.69
2022-11-26T22:47:14.723Z,5.67
2022-11-26T22:49:43.613Z,5.56
2022-11-26T22:52:11.790Z,5.48
2022-11-26T22:54:39.188Z,5.49
2022-11-26T22:57:06.646Z,5.48
2022-11-26T22:59:35.419Z,5.49
2022-11-26T23:02:02.824Z,5.50
2022-11-26T23:04:30.216Z,5.44
2022-11-26T23:06:57.674Z,5.50
2022-11-26T23:09:25.142Z,5.50
2022-11-26T23:11:52.605Z,5.47
2022-11-26T23:14:20.037Z,5.65
2022-11-26T23:16:48.855Z,5.61
2022-11-26T23:19:17.303Z,5.62
2022-11-26T23:21:46.577Z,5.78
2022-11-26T23:24:14.483Z,5.76
2022-11-26T23:26:42.748Z,5.51
2022-11-26T23:29:11.203Z,5.42
2022-11-26T23:31:40.680Z,5.51
2022-11-26T23:34:10.224Z,5.54
2022-11-26T23:36:38.149Z,5.45
2022-11-26T23:39:07.565Z,5.44
2022-11-26T23:41:35.420Z,5.45
2022-11-26T23:44:03.380Z,5.48
2022-11-26T23:46:32.727Z,5.53
2022-11-26T23:49:00.315Z,5.62
2022-11-26T23:51:31.602Z,5.56
2022-11-26T23:53:59.043Z,5.64
2022-11-26T23:56:28.616Z,5.72
2022-11-26T23:58:57.378Z,5.72
